Aviation Digital Data Service (ADDS)

Output produced by METARs form (2145 UTC 18 September 2014)
found at http://aviationweather.gov/adds/metars/
 
KPWM 181722Z 1818/1918 31008KT P6SM SCT060 
     FM190000 34010KT P6SM SKC